Time;durP1;ratioP1;P1;durP2;ratioP2;P2;SDS_P1;SDS_P2;PMS_P1;PMS_P2;Temp;Humidity;BMP_temperature;BMP_pressure;BME280_temperature;BME280_humidity;BME280_pressure;Samples;Min_cycle;Max_cycle;Signal;HPM_P1;HPM_P2
2021/06/06 00:01:02;;;;;;;7.37;6.40;;;18.10;99.90;;;;;;5031183;28;20427;-70
2021/06/06 00:03:34;;;;;;;7.93;6.40;;;18.00;99.90;;;;;;5013090;28;20391;-69
2021/06/06 00:06:05;;;;;;;9.90;7.60;;;18.00;99.90;;;;;;5030814;28;21131;-67
2021/06/06 00:08:34;;;;;;;6.97;6.33;;;18.00;99.90;;;;;;5030709;28;20406;-68
2021/06/06 00:11:08;;;;;;;9.10;8.00;;;18.00;99.90;;;;;;5030647;28;20835;-68
2021/06/06 00:13:39;;;;;;;6.63;6.03;;;17.90;99.90;;;;;;5030723;28;20813;-68
2021/06/06 00:16:12;;;;;;;9.20;6.90;;;17.90;99.90;;;;;;5031251;28;20532;-69
2021/06/06 00:18:41;;;;;;;7.97;7.23;;;17.80;99.90;;;;;;5013510;28;20784;-68
2021/06/06 00:21:09;;;;;;;8.13;6.60;;;17.80;99.90;;;;;;5031501;28;20403;-69
2021/06/06 00:23:36;;;;;;;9.53;7.20;;;17.70;99.90;;;;;;5032990;28;20817;-69
2021/06/06 00:26:08;;;;;;;7.67;6.97;;;17.60;99.90;;;;;;5016642;28;20428;-69
2021/06/06 00:28:36;;;;;;;9.13;6.73;;;17.60;99.90;;;;;;5034586;28;20897;-69
2021/06/06 00:31:07;;;;;;;11.70;7.60;;;17.50;99.90;;;;;;5033440;28;20452;-69
2021/06/06 00:33:36;;;;;;;8.50;7.90;;;17.50;99.90;;;;;;5020182;28;20483;-68
2021/06/06 00:36:05;;;;;;;7.10;6.40;;;17.40;99.90;;;;;;5040346;28;20490;-69
2021/06/06 00:38:33;;;;;;;10.40;8.27;;;17.30;99.90;;;;;;5033642;28;20808;-69
2021/06/06 00:41:03;;;;;;;8.30;7.23;;;17.30;99.90;;;;;;5031170;28;20425;-69
2021/06/06 00:43:32;;;;;;;9.00;8.10;;;17.20;99.90;;;;;;5031053;28;20956;-68
2021/06/06 00:46:01;;;;;;;10.33;9.20;;;17.20;99.90;;;;;;5012611;28;20453;-69
2021/06/06 00:48:29;;;;;;;8.90;8.10;;;17.20;99.90;;;;;;5012521;28;20415;-68
2021/06/06 00:51:04;;;;;;;9.80;8.80;;;17.10;99.90;;;;;;5012236;28;20494;-67
2021/06/06 00:53:37;;;;;;;10.03;8.83;;;17.20;99.90;;;;;;5011784;28;20406;-69
2021/06/06 00:56:13;;;;;;;11.33;9.10;;;17.20;99.90;;;;;;5012562;28;20470;-69
2021/06/06 00:58:45;;;;;;;11.63;8.97;;;17.10;99.90;;;;;;5012620;28;20847;-68
2021/06/06 01:01:16;;;;;;;9.70;8.50;;;17.10;99.90;;;;;;5012387;28;20447;-69
2021/06/06 01:03:51;;;;;;;9.53;8.63;;;17.00;99.90;;;;;;5011988;28;20435;-69
2021/06/06 01:06:26;;;;;;;10.40;9.30;;;16.90;99.90;;;;;;5029992;28;20395;-68
2021/06/06 01:08:54;;;;;;;8.50;7.70;;;16.90;99.90;;;;;;5011893;28;20447;-68
2021/06/06 01:11:28;;;;;;;9.67;8.67;;;16.80;99.90;;;;;;5011887;28;20974;-69
2021/06/06 01:14:02;;;;;;;9.20;7.90;;;16.90;99.90;;;;;;5011801;28;20460;-67
2021/06/06 01:16:36;;;;;;;12.27;11.07;;;16.80;99.90;;;;;;5029396;28;20438;-69
2021/06/06 01:19:12;;;;;;;11.37;8.30;;;16.70;99.90;;;;;;5032210;28;20940;-68
2021/06/06 01:22:06;;;;;;;12.33;9.80;;;16.70;99.90;;;;;;5016188;28;20414;-68
2021/06/06 01:24:49;;;;;;;9.33;8.40;;;16.70;99.90;;;;;;5016096;28;20428;-69
2021/06/06 01:27:24;;;;;;;8.40;7.70;;;16.70;99.90;;;;;;5016331;28;20445;-69
2021/06/06 01:29:56;;;;;;;10.03;9.20;;;16.60;99.90;;;;;;5033559;28;20482;-69
2021/06/06 01:32:30;;;;;;;10.00;8.97;;;16.60;99.90;;;;;;5033678;28;20558;-68
2021/06/06 01:35:06;;;;;;;8.87;7.97;;;16.60;99.90;;;;;;5034026;28;20406;-68
2021/06/06 01:37:41;;;;;;;8.83;8.03;;;16.60;99.90;;;;;;5033838;28;20442;-69
2021/06/06 01:40:17;;;;;;;8.33;7.47;;;16.60;99.90;;;;;;5015931;28;20505;-69
2021/06/06 01:43:07;;;;;;;9.47;8.67;;;16.60;99.90;;;;;;5033257;28;20403;-69
2021/06/06 01:45:58;;;;;;;7.00;6.30;;;16.50;99.90;;;;;;5033612;28;20410;-69
2021/06/06 01:48:46;;;;;;;11.00;8.70;;;16.50;99.90;;;;;;5015513;28;20866;-69
2021/06/06 01:51:19;;;;;;;9.87;8.87;;;16.50;99.90;;;;;;5033391;28;20432;-70
2021/06/06 01:54:07;;;;;;;10.03;8.90;;;16.50;99.90;;;;;;5032728;28;20507;-69
2021/06/06 01:56:40;;;;;;;8.30;7.60;;;16.40;99.90;;;;;;5033361;28;20446;-68
2021/06/06 01:59:16;;;;;;;9.30;8.40;;;16.40;99.90;;;;;;5015322;28;20466;-69
2021/06/06 02:01:49;;;;;;;9.10;8.17;;;16.30;99.90;;;;;;5015631;28;20425;-69
2021/06/06 02:04:19;;;;;;;10.93;9.83;;;16.30;99.90;;;;;;5032869;28;20399;-70
2021/06/06 02:06:52;;;;;;;9.57;8.47;;;16.30;99.90;;;;;;5015528;28;20406;-69
2021/06/06 02:09:31;;;;;;;11.23;9.97;;;16.30;99.90;;;;;;5032897;28;20437;-68
2021/06/06 02:12:27;;;;;;;13.33;10.40;;;16.20;99.90;;;;;;5015132;28;20417;-68
2021/06/06 02:15:05;;;;;;;11.17;9.10;;;16.30;99.90;;;;;;5015257;28;20855;-67
2021/06/06 02:17:37;;;;;;;10.03;9.03;;;16.20;99.90;;;;;;5032943;28;20464;-68
2021/06/06 02:20:21;;;;;;;10.57;9.43;;;16.30;99.90;;;;;;5015010;28;20445;-68
2021/06/06 02:22:50;;;;;;;9.27;8.17;;;16.20;99.90;;;;;;5014672;28;20418;-68
2021/06/06 02:25:39;;;;;;;8.90;8.00;;;16.30;99.90;;;;;;5032815;28;20478;-69
2021/06/06 02:28:35;;;;;;;10.77;9.70;;;16.30;99.90;;;;;;5014921;28;20448;-69
2021/06/06 02:31:12;;;;;;;12.27;9.90;;;16.30;99.90;;;;;;5013681;28;20964;-69
2021/06/06 02:34:05;;;;;;;10.37;9.27;;;16.30;99.90;;;;;;5032424;28;20433;-69
2021/06/06 02:36:36;;;;;;;9.10;8.20;;;16.30;99.90;;;;;;5014760;28;20521;-68
2021/06/06 02:39:26;;;;;;;10.10;8.20;;;16.30;99.90;;;;;;5014785;28;20502;-70
2021/06/06 02:42:17;;;;;;;9.00;8.20;;;16.20;99.90;;;;;;5032571;28;20901;-66
2021/06/06 02:44:53;;;;;;;10.70;9.70;;;16.20;99.90;;;;;;5032578;28;20798;-68
2021/06/06 02:47:40;;;;;;;9.60;8.70;;;16.30;99.90;;;;;;5014825;28;20422;-68
2021/06/06 02:50:28;;;;;;;10.20;9.17;;;16.20;99.90;;;;;;5014426;28;20970;-69
2021/06/06 02:53:01;;;;;;;9.67;8.57;;;16.30;99.90;;;;;;5013872;28;20430;-69
2021/06/06 02:55:39;;;;;;;8.57;7.67;;;16.30;99.90;;;;;;5032121;28;20498;-69
2021/06/06 02:58:15;;;;;;;9.03;8.17;;;16.30;99.90;;;;;;5032213;28;20901;-69
2021/06/06 03:00:53;;;;;;;10.67;9.00;;;16.30;99.90;;;;;;5014333;28;20434;-69
2021/06/06 03:03:28;;;;;;;10.53;9.40;;;16.30;99.90;;;;;;5031999;28;20400;-69
2021/06/06 03:06:05;;;;;;;10.37;9.10;;;16.30;99.90;;;;;;5013991;28;20531;-67
2021/06/06 03:08:34;;;;;;;11.20;9.00;;;16.40;99.90;;;;;;5029903;23;20656;-80
2021/06/06 03:11:05;;;;;;;9.10;8.20;;;16.40;99.90;;;;;;5022123;28;20432;-79
2021/06/06 03:13:37;;;;;;;9.53;8.40;;;16.40;99.90;;;;;;5040677;28;20384;-78
2021/06/06 03:16:06;;;;;;;11.27;10.23;;;16.50;99.90;;;;;;5023939;28;20450;-76
2021/06/06 03:18:45;;;;;;;11.37;10.20;;;16.50;99.90;;;;;;5044259;28;20823;-78
2021/06/06 03:21:18;;;;;;;11.70;10.50;;;16.60;99.90;;;;;;5030264;28;20630;-78
2021/06/06 03:23:51;;;;;;;9.60;8.50;;;16.60;99.90;;;;;;5041065;28;20395;-79
2021/06/06 03:26:20;;;;;;;11.60;10.37;;;16.60;99.90;;;;;;5023148;28;21002;-80
2021/06/06 03:28:55;;;;;;;10.87;9.77;;;16.70;99.90;;;;;;5041331;28;20422;-79
2021/06/06 03:31:29;;;;;;;10.47;9.47;;;16.70;99.90;;;;;;5041816;28;20409;-80
2021/06/06 03:34:02;;;;;;;10.10;9.20;;;16.70;99.90;;;;;;5022663;28;20479;-79
2021/06/06 03:36:45;;;;;;;9.70;8.90;;;17.00;99.90;;;;;;5054711;28;20502;-75
2021/06/06 03:39:45;;;;;;;9.97;8.47;;;17.40;99.90;;;;;;5034509;28;20451;-76
2021/06/06 03:42:20;;;;;;;9.50;8.60;;;18.60;99.90;;;;;;5041264;28;20402;-76
2021/06/06 03:44:52;;;;;;;9.70;8.80;;;19.80;99.90;;;;;;5041484;28;20432;-77
2021/06/06 03:47:25;;;;;;;8.80;8.00;;;20.80;99.90;;;;;;5051801;28;20567;-81
2021/06/06 03:49:54;;;;;;;8.87;7.83;;;21.70;99.90;;;;;;5022447;28;20546;-81
2021/06/06 03:52:33;;;;;;;8.87;8.07;;;22.00;99.90;;;;;;5021633;28;20499;-80
2021/06/06 03:55:05;;;;;;;9.40;8.50;;;22.50;99.90;;;;;;5021526;28;20428;-81
2021/06/06 03:57:33;;;;;;;11.27;9.53;;;23.10;99.90;;;;;;5021540;28;20479;-81
2021/06/06 04:00:06;;;;;;;14.00;10.40;;;23.50;99.90;;;;;;5023734;28;20531;-80
2021/06/06 04:02:42;;;;;;;10.30;9.40;;;23.90;99.90;;;;;;5039403;28;20484;-80
2021/06/06 04:05:20;;;;;;;9.83;8.90;;;24.30;99.90;;;;;;5021474;28;20502;-80
2021/06/06 04:07:50;;;;;;;10.03;9.23;;;24.60;99.90;;;;;;5020733;28;20447;-80
2021/06/06 04:10:17;;;;;;;13.10;8.90;;;24.90;99.90;;;;;;5020599;28;20472;-80
2021/06/06 04:12:46;;;;;;;10.00;9.13;;;25.20;99.90;;;;;;5038286;28;20454;-78
2021/06/06 04:15:16;;;;;;;10.60;9.70;;;25.70;99.90;;;;;;5038906;28;20457;-79
2021/06/06 04:17:46;;;;;;;10.33;9.37;;;25.70;99.90;;;;;;5021025;28;20484;-80
2021/06/06 04:20:15;;;;;;;9.73;8.83;;;25.90;99.90;;;;;;5020506;28;20463;-80
2021/06/06 04:22:44;;;;;;;12.00;9.47;;;26.40;99.90;;;;;;5039511;28;20443;-79
2021/06/06 04:25:15;;;;;;;9.80;8.93;;;26.70;99.90;;;;;;5022087;28;20590;-80
2021/06/06 04:27:43;;;;;;;10.83;9.93;;;27.20;99.90;;;;;;5025324;28;20452;-76
2021/06/06 04:30:14;;;;;;;10.97;9.93;;;27.70;99.90;;;;;;5026514;28;20471;-79
2021/06/06 04:32:42;;;;;;;14.13;9.67;;;27.80;99.90;;;;;;5045882;28;20504;-78
2021/06/06 04:35:12;;;;;;;11.30;10.30;;;28.20;99.90;;;;;;5034190;28;20447;-78
2021/06/06 04:37:41;;;;;;;10.87;9.97;;;28.20;99.90;;;;;;5030398;28;20464;-79
2021/06/06 04:40:11;;;;;;;11.37;10.30;;;28.60;99.90;;;;;;5032039;28;20466;-78
2021/06/06 04:42:40;;;;;;;10.13;9.30;;;28.60;99.90;;;;;;5029195;28;20439;-79
2021/06/06 04:45:13;;;;;;;10.50;9.60;;;28.20;99.90;;;;;;5020790;28;20448;-80
2021/06/06 04:47:42;;;;;;;9.23;8.33;;;28.60;99.90;;;;;;5021120;28;20425;-81
2021/06/06 04:50:15;;;;;;;12.57;11.20;;;29.40;99.90;;;;;;5020121;28;20448;-81
2021/06/06 04:52:44;;;;;;;10.80;9.80;;;30.10;99.90;;;;;;5020159;28;20494;-77
2021/06/06 04:55:16;;;;;;;11.53;10.63;;;30.20;99.90;;;;;;5038550;28;20411;-80
2021/06/06 04:57:45;;;;;;;11.07;10.17;;;30.10;99.90;;;;;;5020714;28;20476;-79
2021/06/06 05:00:18;;;;;;;12.27;11.10;;;30.20;99.90;;;;;;5020216;28;20460;-79
2021/06/06 05:02:47;;;;;;;10.87;9.73;;;30.00;99.90;;;;;;5038187;28;20408;-79
2021/06/06 05:05:22;;;;;;;10.47;9.60;;;29.60;99.90;;;;;;5020538;28;20439;-81
2021/06/06 05:07:53;;;;;;;11.17;10.10;;;29.40;99.90;;;;;;5038959;28;20503;-80
2021/06/06 05:10:23;;;;;;;11.07;9.50;;;30.20;99.90;;;;;;5021899;28;20539;-79
2021/06/06 05:12:53;;;;;;;11.87;10.67;;;30.90;99.90;;;;;;5041357;28;20416;-80
2021/06/06 05:15:22;;;;;;;11.63;10.63;;;31.40;99.90;;;;;;5023448;28;20444;-80
2021/06/06 05:17:51;;;;;;;12.00;10.90;;;31.90;99.90;;;;;;5022424;28;20471;-80
2021/06/06 05:20:25;;;;;;;10.97;9.87;;;32.00;99.90;;;;;;5021402;28;20463;-80
2021/06/06 05:22:53;;;;;;;11.70;10.80;;;32.00;99.90;;;;;;5023493;28;20448;-80
2021/06/06 05:25:22;;;;;;;10.97;9.87;;;31.80;99.90;;;;;;5022268;28;20512;-78
2021/06/06 05:27:49;;;;;;;10.03;9.13;;;32.20;99.90;;;;;;5038049;28;20579;-79
2021/06/06 05:30:22;;;;;;;11.10;10.20;;;32.50;99.90;;;;;;5036176;28;20452;-80
2021/06/06 05:32:49;;;;;;;11.17;10.10;;;32.70;99.90;;;;;;5017166;28;20448;-79
2021/06/06 05:35:18;;;;;;;10.73;9.83;;;31.40;99.90;;;;;;5036584;28;20474;-79
2021/06/06 05:37:47;;;;;;;12.27;11.20;;;29.50;99.90;;;;;;5020166;28;20464;-79
2021/06/06 05:40:15;;;;;;;13.03;11.60;;;27.40;99.90;;;;;;5019894;28;20561;-79
2021/06/06 05:42:44;;;;;;;11.57;10.57;;;25.70;99.90;;;;;;5037314;28;20409;-80
2021/06/06 05:45:14;;;;;;;13.40;12.20;;;24.40;99.90;;;;;;5038376;28;20424;-80
2021/06/06 05:47:42;;;;;;;12.93;11.87;;;23.70;99.90;;;;;;5025160;28;20478;-80
2021/06/06 05:50:11;;;;;;;13.67;12.37;;;23.30;99.90;;;;;;5047172;28;20931;-80
2021/06/06 05:52:47;;;;;;;12.60;11.53;;;23.00;99.90;;;;;;5022625;28;20868;-80
2021/06/06 05:55:17;;;;;;;12.10;10.93;;;22.90;99.90;;;;;;5038905;28;20511;-79
2021/06/06 05:57:44;;;;;;;12.70;11.60;;;22.90;99.90;;;;;;5037102;28;20448;-81
2021/06/06 06:00:16;;;;;;;10.50;9.70;;;22.90;99.90;;;;;;5020418;28;20994;-80
2021/06/06 06:02:44;;;;;;;12.70;11.60;;;22.90;99.90;;;;;;5021581;28;20425;-80
2021/06/06 06:05:12;;;;;;;13.67;12.47;;;23.00;99.90;;;;;;5026332;28;20403;-78
2021/06/06 06:07:40;;;;;;;12.97;11.77;;;23.00;99.90;;;;;;5046274;28;20419;-77
2021/06/06 06:10:11;;;;;;;13.37;12.20;;;23.20;99.90;;;;;;5045032;28;20519;-79
2021/06/06 06:12:39;;;;;;;13.33;12.20;;;23.30;99.90;;;;;;5023854;28;20813;-80
2021/06/06 06:15:08;;;;;;;13.00;11.33;;;23.30;99.90;;;;;;5022850;28;20410;-79
2021/06/06 06:17:36;;;;;;;12.93;11.70;;;23.20;99.90;;;;;;5040927;28;20460;-80
2021/06/06 06:20:06;;;;;;;14.20;13.00;;;23.20;99.90;;;;;;5022613;28;20462;-78
2021/06/06 06:22:35;;;;;;;14.20;13.00;;;23.30;99.90;;;;;;5040117;28;20447;-78
2021/06/06 06:25:04;;;;;;;13.03;11.93;;;23.50;99.90;;;;;;5040856;28;20405;-80
2021/06/06 06:27:33;;;;;;;13.00;12.00;;;23.70;99.90;;;;;;5039855;28;20409;-80
2021/06/06 06:30:10;;;;;;;13.13;12.03;;;23.80;99.90;;;;;;5040511;28;20439;-79
2021/06/06 06:32:39;;;;;;;14.63;13.40;;;23.90;99.90;;;;;;5022740;28;20436;-79
2021/06/06 06:35:08;;;;;;;13.23;11.93;;;23.90;99.90;;;;;;5022980;28;20432;-79
2021/06/06 06:37:36;;;;;;;14.30;13.00;;;23.90;99.90;;;;;;5040042;28;20468;-80
2021/06/06 06:40:07;;;;;;;13.37;12.37;;;24.10;99.90;;;;;;5040603;28;20452;-79
2021/06/06 06:42:36;;;;;;;11.43;10.53;;;24.20;99.90;;;;;;5042532;28;20431;-80
2021/06/06 06:45:05;;;;;;;12.33;11.33;;;24.30;99.90;;;;;;5045041;28;20447;-78
2021/06/06 06:47:33;;;;;;;11.93;10.83;;;24.50;99.90;;;;;;5048253;28;20415;-76
2021/06/06 06:50:01;;;;;;;13.87;12.47;;;24.70;99.90;;;;;;5027698;28;20472;-77
2021/06/06 06:52:36;;;;;;;14.33;12.87;;;24.80;99.90;;;;;;5044221;28;20435;-79
2021/06/06 06:55:06;;;;;;;13.70;11.43;;;24.80;99.90;;;;;;5040876;28;20454;-80
2021/06/06 06:57:36;;;;;;;13.47;12.37;;;24.30;99.90;;;;;;5022776;28;20468;-79
2021/06/06 07:00:09;;;;;;;13.23;12.23;;;24.30;99.90;;;;;;5022722;28;20452;-78
2021/06/06 07:02:57;;;;;;;12.33;11.30;;;24.40;99.90;;;;;;5039492;28;20534;-80
2021/06/06 07:05:25;;;;;;;11.07;10.07;;;24.70;99.90;;;;;;5021640;28;20431;-80
2021/06/06 07:07:54;;;;;;;12.37;11.20;;;24.80;99.90;;;;;;5021891;28;20440;-80
2021/06/06 07:10:24;;;;;;;13.80;12.60;;;25.00;99.90;;;;;;5040033;28;20466;-80
2021/06/06 07:12:53;;;;;;;13.57;12.57;;;25.10;99.90;;;;;;5023127;28;20966;-80
2021/06/06 07:15:21;;;;;;;12.83;11.73;;;25.20;99.90;;;;;;5022863;28;20451;-77
2021/06/06 07:17:49;;;;;;;13.17;12.17;;;25.40;99.90;;;;;;5022238;28;20463;-80
2021/06/06 07:20:26;;;;;;;12.63;11.73;;;25.40;99.90;;;;;;5021818;28;20468;-84
2021/06/06 07:22:54;;;;;;;12.57;11.50;;;25.40;99.90;;;;;;5040270;28;20478;-80
2021/06/06 07:25:22;;;;;;;11.13;10.03;;;25.60;99.90;;;;;;5041168;28;20439;-79
2021/06/06 07:27:51;;;;;;;11.80;10.80;;;25.80;99.90;;;;;;5041450;28;20416;-80
2021/06/06 07:30:22;;;;;;;11.90;10.70;;;25.80;99.90;;;;;;5058907;28;20446;-79
2021/06/06 07:32:52;;;;;;;10.73;9.83;;;26.10;99.90;;;;;;5041748;28;20816;-79
2021/06/06 07:35:21;;;;;;;11.87;10.97;;;25.90;99.90;;;;;;5041093;28;20939;-79
2021/06/06 07:37:49;;;;;;;11.53;10.53;;;26.10;99.90;;;;;;5058136;28;20513;-79
2021/06/06 07:40:17;;;;;;;11.60;10.60;;;26.10;99.90;;;;;;5058171;28;20530;-81
2021/06/06 07:42:44;;;;;;;12.47;11.43;;;26.20;99.90;;;;;;5043827;28;20433;-81
2021/06/06 07:45:15;;;;;;;10.43;9.57;;;26.40;99.90;;;;;;5022778;28;20428;-80
2021/06/06 07:47:44;;;;;;;12.77;11.67;;;26.60;99.90;;;;;;5039319;28;20417;-80
2021/06/06 07:50:14;;;;;;;11.67;10.63;;;26.70;99.90;;;;;;5038988;28;20440;-79
2021/06/06 07:52:42;;;;;;;11.23;10.33;;;26.70;99.90;;;;;;5021650;28;20464;-80
2021/06/06 07:55:12;;;;;;;11.70;10.60;;;26.80;99.90;;;;;;5021887;28;20436;-80
2021/06/06 07:57:41;;;;;;;9.97;9.17;;;26.80;99.90;;;;;;5039095;28;20463;-78
2021/06/06 08:00:11;;;;;;;10.97;10.13;;;27.10;99.90;;;;;;5039003;28;20924;-80
2021/06/06 08:02:40;;;;;;;12.10;11.20;;;27.00;99.90;;;;;;5040352;28;20417;-80
2021/06/06 08:05:10;;;;;;;11.10;10.07;;;26.80;99.90;;;;;;5039197;28;20839;-80
2021/06/06 08:07:38;;;;;;;10.10;9.23;;;27.00;99.90;;;;;;5040712;28;20435;-79
2021/06/06 08:10:08;;;;;;;10.37;9.57;;;27.10;99.90;;;;;;5022247;28;20468;-78
2021/06/06 08:12:36;;;;;;;11.60;10.60;;;27.00;99.90;;;;;;5023269;28;20894;-78
2021/06/06 08:15:05;;;;;;;10.40;9.60;;;27.00;99.90;;;;;;5019712;28;20925;-79
2021/06/06 08:17:33;;;;;;;11.47;10.57;;;26.70;99.90;;;;;;5020056;28;20539;-80
2021/06/06 08:20:03;;;;;;;11.03;10.07;;;26.60;99.90;;;;;;5038826;28;20436;-78
2021/06/06 08:22:32;;;;;;;9.80;9.10;;;27.00;99.90;;;;;;5021717;28;20447;-80
2021/06/06 08:25:00;;;;;;;9.07;8.37;;;27.10;99.90;;;;;;5022243;28;20432;-85
2021/06/06 08:27:27;;;;;;;9.63;8.83;;;27.20;99.90;;;;;;5020164;28;20848;-76
2021/06/06 08:29:55;;;;;;;9.60;8.90;;;27.20;99.90;;;;;;5020894;28;20943;-78
2021/06/06 08:32:22;;;;;;;10.20;9.50;;;27.10;99.90;;;;;;5024479;28;20447;-78
2021/06/06 08:34:50;;;;;;;12.00;9.53;;;27.30;99.90;;;;;;5059008;28;20442;-80
2021/06/06 08:37:18;;;;;;;9.20;8.50;;;27.50;99.90;;;;;;5060818;28;20431;-81
2021/06/06 08:39:47;;;;;;;8.67;7.77;;;27.60;99.90;;;;;;5064946;28;20521;-78
2021/06/06 08:42:21;;;;;;;8.90;8.10;;;27.60;99.90;;;;;;5049837;28;20800;-79
2021/06/06 08:45:00;;;;;;;8.90;8.20;;;27.60;99.90;;;;;;5065874;28;20412;-78
2021/06/06 08:47:30;;;;;;;7.73;7.13;;;27.60;99.90;;;;;;5057443;28;20415;-78
2021/06/06 08:50:00;;;;;;;10.47;7.17;;;27.60;99.90;;;;;;5029119;28;20464;-78
2021/06/06 08:52:36;;;;;;;6.67;6.07;;;27.90;99.90;;;;;;5039676;28;20416;-78
2021/06/06 08:55:12;;;;;;;6.80;6.20;;;28.00;99.90;;;;;;5038865;28;20516;-78
2021/06/06 08:57:44;;;;;;;7.47;6.83;;;28.20;99.90;;;;;;5046242;28;20438;-77
2021/06/06 09:00:18;;;;;;;7.20;6.50;;;28.40;99.90;;;;;;5045259;28;20535;-77
2021/06/06 09:02:48;;;;;;;6.57;5.87;;;28.50;99.90;;;;;;5043710;28;20418;-78
2021/06/06 09:05:25;;;;;;;6.83;6.23;;;28.20;99.90;;;;;;5045664;28;20421;-77
2021/06/06 09:07:54;;;;;;;8.23;7.53;;;27.80;99.90;;;;;;5025088;28;20428;-79
2021/06/06 09:10:27;;;;;;;8.10;7.30;;;27.60;99.90;;;;;;5060837;23;20552;-84
2021/06/06 09:12:56;;;;;;;6.43;5.83;;;27.60;99.90;;;;;;5063773;28;20455;-80
2021/06/06 09:15:26;;;;;;;5.50;5.10;;;28.00;99.90;;;;;;5043488;28;20454;-80
2021/06/06 09:17:57;;;;;;;5.27;4.87;;;28.40;99.90;;;;;;5061610;28;20450;-81
2021/06/06 09:20:32;;;;;;;6.00;5.50;;;28.70;99.90;;;;;;5060937;28;20497;-80
2021/06/06 09:23:07;;;;;;;8.03;6.77;;;28.90;99.90;;;;;;5042258;28;20541;-80
2021/06/06 09:25:40;;;;;;;5.67;5.17;;;28.60;99.90;;;;;;5060482;28;20487;-80
2021/06/06 09:28:10;;;;;;;5.70;5.30;;;28.90;99.90;;;;;;5061260;28;20837;-80
2021/06/06 09:30:40;;;;;;;6.60;6.10;;;29.10;99.90;;;;;;5043053;28;21056;-82
2021/06/06 09:33:13;;;;;;;5.50;5.00;;;29.10;99.90;;;;;;5060166;28;20463;-81
2021/06/06 09:35:51;;;;;;;5.30;4.90;;;29.10;99.90;;;;;;5061017;28;20491;-81
2021/06/06 09:38:32;;;;;;;6.43;5.80;;;28.80;99.90;;;;;;5061122;28;20459;-81
2021/06/06 09:41:24;;;;;;;5.47;5.07;;;28.90;99.90;;;;;;5065483;28;20442;-81
2021/06/06 09:44:05;;;;;;;6.30;5.80;;;28.40;99.90;;;;;;5046507;28;20978;-80
2021/06/06 09:46:36;;;;;;;6.43;5.83;;;28.00;99.90;;;;;;5047406;28;20434;-80
2021/06/06 09:49:15;;;;;;;29.63;21.20;;;28.00;99.90;;;;;;5064959;28;20833;-79
2021/06/06 09:51:43;;;;;;;12.43;11.13;;;27.90;99.90;;;;;;5066662;28;20433;-80
2021/06/06 09:54:13;;;;;;;6.60;6.00;;;28.30;99.90;;;;;;5068020;28;20457;-80
2021/06/06 09:56:48;;;;;;;5.10;4.70;;;28.70;99.90;;;;;;5067276;28;20421;-80
2021/06/06 09:59:25;;;;;;;6.20;5.10;;;28.90;99.90;;;;;;5068772;28;20470;-80
2021/06/06 10:01:59;;;;;;;6.97;6.30;;;28.60;99.90;;;;;;5064152;28;20419;-79
2021/06/06 10:04:30;;;;;;;4.97;4.57;;;28.70;99.90;;;;;;5065172;28;20498;-81
2021/06/06 10:07:14;;;;;;;5.33;4.93;;;28.70;99.90;;;;;;5064653;28;20431;-81
2021/06/06 10:09:50;;;;;;;5.70;4.90;;;28.80;99.90;;;;;;5065327;28;20534;-81
2021/06/06 10:12:28;;;;;;;6.10;5.70;;;28.90;99.90;;;;;;5067277;28;20427;-80
2021/06/06 10:15:00;;;;;;;6.10;5.50;;;29.30;99.90;;;;;;5072461;28;20419;-79
2021/06/06 10:17:36;;;;;;;6.03;5.50;;;29.30;99.90;;;;;;5073906;28;20424;-80
2021/06/06 10:20:13;;;;;;;6.17;5.53;;;29.30;99.90;;;;;;5066817;28;20506;-81
2021/06/06 10:22:46;;;;;;;5.87;5.37;;;28.90;99.90;;;;;;5065163;28;20535;-80
2021/06/06 10:25:20;;;;;;;5.40;5.00;;;28.80;99.90;;;;;;5049281;28;20510;-80
2021/06/06 10:27:53;;;;;;;5.93;5.47;;;28.80;99.90;;;;;;5057259;28;20431;-79
2021/06/06 10:30:28;;;;;;;5.10;4.70;;;29.20;99.90;;;;;;5073798;28;20454;-80
2021/06/06 10:33:04;;;;;;;6.17;5.77;;;29.30;99.90;;;;;;5075084;28;20450;-79
2021/06/06 10:35:32;;;;;;;6.13;5.63;;;29.20;99.90;;;;;;5053597;28;20427;-79
2021/06/06 10:38:00;;;;;;;5.70;5.20;;;29.20;99.90;;;;;;5061494;28;20438;-78
2021/06/06 10:40:36;;;;;;;9.43;6.50;;;29.30;99.90;;;;;;5053334;28;20479;-80
2021/06/06 10:43:12;;;;;;;6.33;5.83;;;29.10;99.90;;;;;;5062575;28;20422;-79
2021/06/06 10:45:46;;;;;;;7.00;5.40;;;29.10;99.90;;;;;;5044687;28;20450;-80
2021/06/06 10:48:21;;;;;;;5.33;4.93;;;29.10;99.90;;;;;;5064858;28;20446;-80
2021/06/06 10:50:51;;;;;;;6.10;5.60;;;29.10;99.90;;;;;;5063579;28;20449;-81
2021/06/06 10:53:23;;;;;;;5.67;5.27;;;29.30;99.90;;;;;;5064075;28;20491;-78
2021/06/06 10:56:02;;;;;;;6.07;5.47;;;29.30;99.90;;;;;;5067046;28;20411;-80
2021/06/06 10:58:36;;;;;;;5.63;5.17;;;29.30;99.90;;;;;;5067252;28;20434;-80
2021/06/06 11:01:08;;;;;;;5.80;5.30;;;29.30;99.90;;;;;;5063563;28;20423;-82
2021/06/06 11:03:36;;;;;;;5.77;5.37;;;29.40;99.90;;;;;;5063339;28;20424;-79
2021/06/06 11:06:22;;;;;;;5.50;5.10;;;29.50;99.90;;;;;;5063837;28;20943;-80
2021/06/06 11:08:51;;;;;;;5.27;4.87;;;29.30;99.90;;;;;;5061833;28;20451;-81
2021/06/06 11:11:25;;;;;;;5.60;5.10;;;29.50;99.90;;;;;;5045543;28;20970;-79
2021/06/06 11:13:58;;;;;;;5.00;4.60;;;29.50;99.90;;;;;;5068758;28;20427;-79
2021/06/06 11:16:39;;;;;;;9.13;5.90;;;29.80;99.90;;;;;;5070176;28;20472;-78
2021/06/06 11:19:13;;;;;;;5.73;5.23;;;30.20;99.90;;;;;;5062893;28;20466;-78
2021/06/06 11:21:48;;;;;;;5.17;4.67;;;30.30;99.90;;;;;;5065211;28;20438;-79
2021/06/06 11:24:34;;;;;;;5.63;5.13;;;30.20;99.90;;;;;;5065745;28;20430;-79
2021/06/06 11:27:06;;;;;;;5.00;4.60;;;30.10;99.90;;;;;;5074107;28;20400;-80
2021/06/06 11:29:47;;;;;;;6.30;5.70;;;29.90;99.90;;;;;;5071544;28;20435;-80
2021/06/06 11:32:23;;;;;;;7.53;4.63;;;29.90;99.90;;;;;;5053262;28;20447;-81
2021/06/06 11:35:10;;;;;;;5.23;4.53;;;30.10;99.90;;;;;;5042962;28;20959;-81
2021/06/06 11:37:41;;;;;;;4.80;4.40;;;29.90;99.90;;;;;;5062128;28;20992;-80
2021/06/06 11:40:26;;;;;;;5.90;5.37;;;29.10;99.90;;;;;;5064968;28;20538;-78
2021/06/06 11:42:58;;;;;;;5.67;5.27;;;29.10;99.90;;;;;;5045666;28;20435;-81
2021/06/06 11:45:32;;;;;;;5.70;5.20;;;29.20;99.90;;;;;;5065881;28;20918;-81
2021/06/06 11:48:07;;;;;;;5.90;5.47;;;28.30;99.90;;;;;;5063044;28;20866;-82
2021/06/06 11:50:42;;;;;;;4.70;4.30;;;27.80;99.90;;;;;;5062515;28;20442;-80
2021/06/06 11:53:15;;;;;;;5.20;4.80;;;27.70;99.90;;;;;;5065515;28;20415;-81
2021/06/06 11:55:47;;;;;;;5.80;5.27;;;27.60;99.90;;;;;;5064094;28;20432;-79
2021/06/06 11:58:19;;;;;;;4.83;4.43;;;27.60;99.90;;;;;;5064244;28;20423;-79
2021/06/06 12:00:50;;;;;;;5.37;4.87;;;27.70;99.90;;;;;;5074016;28;20473;-79
2021/06/06 12:03:25;;;;;;;5.20;4.70;;;28.20;99.90;;;;;;5059917;28;20427;-79
2021/06/06 12:05:56;;;;;;;5.37;4.97;;;28.80;99.90;;;;;;5077315;28;20516;-79
2021/06/06 12:08:30;;;;;;;4.77;4.40;;;29.10;99.90;;;;;;5059401;28;20454;-78
2021/06/06 12:11:01;;;;;;;4.97;4.60;;;29.10;99.90;;;;;;5077437;28;20474;-78
2021/06/06 12:13:32;;;;;;;4.70;4.37;;;29.20;99.90;;;;;;5077887;28;20411;-77
2021/06/06 12:16:08;;;;;;;9.80;8.87;;;29.30;99.90;;;;;;5060472;28;20435;-78
2021/06/06 12:18:37;;;;;;;5.30;4.90;;;29.50;99.90;;;;;;5077988;28;20431;-79
2021/06/06 12:21:11;;;;;;;5.50;5.10;;;29.80;99.90;;;;;;5060498;28;20487;-79
2021/06/06 12:23:41;;;;;;;4.93;4.53;;;30.20;99.90;;;;;;5077673;28;20478;-79
2021/06/06 12:26:12;;;;;;;6.53;5.10;;;29.70;99.90;;;;;;5061727;28;20427;-80
2021/06/06 12:28:43;;;;;;;5.43;5.03;;;29.50;99.90;;;;;;5059480;28;20882;-79
2021/06/06 12:31:28;;;;;;;6.80;6.20;;;29.30;99.90;;;;;;5057339;28;20800;-80
2021/06/06 12:33:57;;;;;;;5.50;5.00;;;28.70;99.90;;;;;;5057254;28;20423;-79
2021/06/06 12:36:29;;;;;;;6.10;5.57;;;28.50;99.90;;;;;;5057247;28;20518;-80
2021/06/06 12:38:59;;;;;;;7.03;6.43;;;28.10;99.90;;;;;;5058253;28;20482;-79
2021/06/06 12:41:29;;;;;;;5.70;5.30;;;27.80;99.90;;;;;;5055922;28;20435;-78
2021/06/06 12:43:58;;;;;;;6.60;6.10;;;27.80;99.90;;;;;;5055727;28;20537;-80
2021/06/06 12:46:27;;;;;;;7.20;6.70;;;27.80;99.90;;;;;;5055896;28;20443;-79
2021/06/06 12:49:01;;;;;;;6.47;5.97;;;28.00;99.90;;;;;;5055178;28;20447;-79
2021/06/06 12:51:31;;;;;;;5.77;5.27;;;28.10;99.90;;;;;;5056255;28;20407;-80
2021/06/06 12:54:08;;;;;;;5.50;5.10;;;28.00;99.90;;;;;;5053780;28;20431;-79
2021/06/06 12:56:38;;;;;;;5.10;4.70;;;27.90;99.90;;;;;;5062529;28;20483;-81
2021/06/06 12:59:10;;;;;;;8.60;7.80;;;28.00;99.90;;;;;;5065767;28;20443;-81
2021/06/06 13:01:40;;;;;;;14.47;13.07;;;28.20;99.90;;;;;;5048185;28;20796;-80
2021/06/06 13:04:21;;;;;;;7.33;6.73;;;28.20;99.90;;;;;;5061847;28;20415;-80
2021/06/06 13:06:49;;;;;;;6.30;5.70;;;28.40;99.90;;;;;;5060791;28;20427;-79
2021/06/06 13:09:21;;;;;;;5.67;5.17;;;28.80;99.90;;;;;;5060143;28;20458;-79